createdAt,value
2023-01-03T00:01:00.427Z,96838.47
2023-01-03T00:03:28.126Z,96849.19
2023-01-03T00:05:55.770Z,96907.22
2023-01-03T00:08:23.399Z,96898.31
2023-01-03T00:10:51.053Z,96885.53
2023-01-03T00:13:19.119Z,96882.28
2023-01-03T00:15:49.050Z,96843.41
2023-01-03T00:18:16.712Z,96889.69
2023-01-03T00:20:44.332Z,96914.94
2023-01-03T00:23:12.045Z,96887.56
2023-01-03T00:25:40.100Z,96905.63
2023-01-03T00:28:08.072Z,96895.19
2023-01-03T00:30:37.944Z,96874.59
2023-01-03T00:33:05.571Z,96901.66
2023-01-03T00:35:33.490Z,96900.13
2023-01-03T00:38:01.175Z,96887.09
2023-01-03T00:40:28.979Z,96927.81
2023-01-03T00:43:14.190Z,96853.16
2023-01-03T00:45:43.278Z,96927.00
2023-01-03T00:48:10.946Z,96912.09
2023-01-03T00:50:38.979Z,96923.47
2023-01-03T00:53:06.631Z,96925.50
2023-01-03T00:55:35.826Z,96851.50
2023-01-03T00:58:03.506Z,96914.00
2023-01-03T01:00:31.246Z,96936.69
2023-01-03T01:03:00.522Z,96918.66
2023-01-03T01:05:30.118Z,96938.66
2023-01-03T01:07:58.056Z,96931.66
2023-01-03T01:10:26.190Z,96927.81
2023-01-03T01:12:56.887Z,96890.88
2023-01-03T01:15:24.758Z,96825.13
2023-01-03T01:17:52.455Z,96893.84
2023-01-03T01:20:21.885Z,96872.78
2023-01-03T01:22:49.541Z,96936.59
2023-01-03T01:25:17.385Z,96857.78
2023-01-03T01:27:45.064Z,96901.97
2023-01-03T01:30:13.635Z,96937.72
2023-01-03T01:32:41.410Z,96900.06
2023-01-03T01:35:09.945Z,96956.78
2023-01-03T01:37:39.074Z,96945.06
2023-01-03T01:40:08.790Z,96904.53
2023-01-03T01:42:53.898Z,96859.41
2023-01-03T01:45:21.616Z,96902.06
2023-01-03T01:47:54.313Z,96967.25
2023-01-03T01:50:26.691Z,96962.16
2023-01-03T01:53:00.282Z,96960.94
2023-01-03T01:55:36.481Z,96965.94
2023-01-03T01:58:04.499Z,96956.06
2023-01-03T02:00:32.164Z,96962.75
2023-01-03T02:03:00.348Z,96972.81
2023-01-03T02:05:29.078Z,96959.03
2023-01-03T02:07:59.275Z,96945.88
2023-01-03T02:10:41.108Z,96981.88
2023-01-03T02:13:15.192Z,96931.94
2023-01-03T02:16:12.018Z,96991.13
2023-01-03T02:18:47.738Z,96942.22
2023-01-03T02:21:53.783Z,96995.06
2023-01-03T02:25:04.991Z,96990.03
2023-01-03T02:28:05.722Z,96981.50
2023-01-03T02:30:41.855Z,96991.69
2023-01-03T02:33:21.805Z,96994.31
2023-01-03T02:36:00.430Z,96983.00
2023-01-03T02:38:41.376Z,96965.53
2023-01-03T02:41:19.133Z,96868.81
2023-01-03T02:43:54.875Z,96899.28
2023-01-03T02:46:28.155Z,96965.53
2023-01-03T02:49:00.296Z,96991.53
2023-01-03T02:51:33.554Z,96926.91
2023-01-03T02:54:03.740Z,96954.44
2023-01-03T02:56:36.853Z,96981.22
2023-01-03T02:59:09.685Z,96965.97
2023-01-03T03:01:44.785Z,96953.59
2023-01-03T03:04:13.655Z,97004.63
2023-01-03T03:06:46.951Z,96877.16
2023-01-03T03:09:14.682Z,96987.25
2023-01-03T03:12:02.081Z,96996.09
2023-01-03T03:14:35.657Z,96992.09
2023-01-03T03:17:09.977Z,96990.72
2023-01-03T03:19:57.347Z,96977.47
2023-01-03T03:22:50.103Z,96980.38
2023-01-03T03:25:21.713Z,96975.91
2023-01-03T03:28:45.169Z,96994.06
2023-01-03T03:31:17.036Z,96975.31
2023-01-03T03:33:50.163Z,96929.47
2023-01-03T03:36:24.898Z,96993.84
2023-01-03T03:38:52.729Z,96998.66
2023-01-03T03:41:46.055Z,96937.13
2023-01-03T03:44:38.215Z,96920.53
2023-01-03T03:47:14.700Z,96972.22
2023-01-03T03:49:47.178Z,96975.94
2023-01-03T03:52:18.037Z,96960.38
2023-01-03T03:54:52.730Z,96902.47
2023-01-03T03:57:26.988Z,96891.78
2023-01-03T03:59:57.735Z,96866.16
2023-01-03T04:02:29.073Z,96978.97
2023-01-03T04:05:01.980Z,96908.34
2023-01-03T04:07:29.844Z,96983.06
2023-01-03T04:09:57.514Z,96991.63
2023-01-03T04:12:25.595Z,97009.22
2023-01-03T04:14:53.353Z,96961.22
2023-01-03T04:17:21.063Z,96929.88
2023-01-03T04:19:48.796Z,96969.53
2023-01-03T04:22:17.855Z,96887.28
2023-01-03T04:24:45.904Z,96903.09
2023-01-03T04:27:18.394Z,96999.28
2023-01-03T04:29:46.069Z,97003.41
2023-01-03T04:32:13.806Z,96936.97
2023-01-03T04:34:41.515Z,97013.13
2023-01-03T04:37:09.221Z,96963.41
2023-01-03T04:39:38.322Z,96915.06
2023-01-03T04:42:26.666Z,96924.31
2023-01-03T04:44:53.894Z,97014.00
2023-01-03T04:47:21.720Z,96960.06
2023-01-03T04:49:49.808Z,96993.25
2023-01-03T04:52:17.631Z,96990.19
2023-01-03T04:54:46.644Z,96941.69
2023-01-03T04:57:14.341Z,96894.63
2023-01-03T04:59:42.137Z,96966.84
2023-01-03T05:02:10.037Z,96935.38
2023-01-03T05:04:37.958Z,96904.69
2023-01-03T05:07:05.663Z,96985.59
2023-01-03T05:09:33.361Z,97019.00
2023-01-03T05:12:02.535Z,97023.69
2023-01-03T05:14:30.202Z,97022.56
2023-01-03T05:16:57.933Z,96981.75
2023-01-03T05:19:25.674Z,97019.63
2023-01-03T05:22:10.732Z,96958.06
2023-01-03T05:24:55.761Z,96998.97
2023-01-03T05:27:25.030Z,97031.13
2023-01-03T05:29:53.905Z,97032.16
2023-01-03T05:32:22.934Z,96885.81
2023-01-03T05:34:50.723Z,96971.72
2023-01-03T05:37:18.407Z,97046.53
2023-01-03T05:39:46.101Z,97023.38
2023-01-03T05:42:13.809Z,97027.03
2023-01-03T05:44:42.871Z,97044.28
2023-01-03T05:47:10.651Z,96927.84
2023-01-03T05:49:38.417Z,96994.56
2023-01-03T05:52:06.403Z,97054.09
2023-01-03T05:54:34.081Z,96910.09
2023-01-03T05:57:01.840Z,96968.56
2023-01-03T05:59:29.553Z,96983.72
2023-01-03T06:01:58.721Z,96913.84
2023-01-03T06:04:26.748Z,97047.38
2023-01-03T06:06:54.481Z,97001.41
2023-01-03T06:09:24.006Z,97024.75
2023-01-03T06:11:51.726Z,96958.72
2023-01-03T06:14:20.325Z,96984.63
2023-01-03T06:17:05.683Z,97008.00
2023-01-03T06:19:34.855Z,97000.03
2023-01-03T06:22:08.647Z,97009.94
2023-01-03T06:24:41.022Z,97024.44
2023-01-03T06:27:08.783Z,96987.59
2023-01-03T06:29:36.519Z,96939.38
2023-01-03T06:32:09.097Z,97030.72
2023-01-03T06:34:38.761Z,97061.19
2023-01-03T06:37:06.532Z,96998.88
2023-01-03T06:39:34.454Z,97015.66
2023-01-03T06:42:22.225Z,97014.84
2023-01-03T06:45:10.392Z,97041.09
2023-01-03T06:47:56.004Z,97032.28
2023-01-03T06:50:42.886Z,96969.34
2023-01-03T06:53:14.913Z,97020.78
2023-01-03T06:55:44.342Z,96957.19
2023-01-03T06:58:12.710Z,97058.06
2023-01-03T07:00:44.357Z,97063.44
2023-01-03T07:03:12.716Z,97046.78
2023-01-03T07:05:41.952Z,97052.03
2023-01-03T07:08:09.670Z,96988.72
2023-01-03T07:10:37.418Z,97054.00
2023-01-03T07:13:22.815Z,97056.63
2023-01-03T07:15:50.844Z,97101.00
2023-01-03T07:18:18.620Z,96955.66
2023-01-03T07:20:47.729Z,96956.69
2023-01-03T07:23:15.700Z,97045.78
2023-01-03T07:25:43.583Z,97068.59
2023-01-03T07:28:12.429Z,97112.88
2023-01-03T07:30:41.823Z,97078.06
2023-01-03T07:33:10.887Z,97026.81
2023-01-03T07:35:39.071Z,97020.78
2023-01-03T07:38:09.151Z,97094.59
2023-01-03T07:40:36.903Z,97024.41
2023-01-03T07:43:22.220Z,97132.38
2023-01-03T07:45:49.912Z,97007.75
2023-01-03T07:48:17.643Z,97036.75
2023-01-03T07:50:45.349Z,97036.75
2023-01-03T07:53:16.753Z,97128.25
2023-01-03T07:55:46.097Z,97124.97
2023-01-03T07:58:14.189Z,97153.38
2023-01-03T08:00:42.357Z,97137.06
2023-01-03T08:03:11.707Z,97063.56
2023-01-03T08:05:39.924Z,97090.03
2023-01-03T08:08:08.049Z,97130.66
2023-01-03T08:10:54.596Z,97095.63
2023-01-03T08:13:22.527Z,97161.47
2023-01-03T08:15:51.946Z,97039.47
2023-01-03T08:18:21.591Z,97137.28
2023-01-03T08:20:49.468Z,97143.19
2023-01-03T08:23:17.192Z,96982.72
2023-01-03T08:25:46.297Z,97045.84
2023-01-03T08:28:14.168Z,97066.59
2023-01-03T08:30:45.373Z,97106.22
2023-01-03T08:33:16.032Z,97157.03
2023-01-03T08:35:47.688Z,97169.38
2023-01-03T08:38:19.557Z,97140.81
2023-01-03T08:40:49.077Z,97128.81
2023-01-03T08:43:17.873Z,97174.13
2023-01-03T08:45:45.738Z,97131.19
2023-01-03T08:48:13.575Z,97122.63
2023-01-03T08:50:42.705Z,97088.25
2023-01-03T08:53:10.945Z,97089.31
2023-01-03T08:55:38.673Z,97081.88
2023-01-03T08:58:09.629Z,97108.59
2023-01-03T09:00:37.646Z,97077.06
2023-01-03T09:03:05.574Z,97099.91
2023-01-03T09:05:33.855Z,97133.22
2023-01-03T09:08:01.725Z,97165.28
2023-01-03T09:10:29.389Z,97199.69
2023-01-03T09:12:57.153Z,97082.31
2023-01-03T09:15:26.375Z,97022.09
2023-01-03T09:17:54.149Z,97056.47
2023-01-03T09:20:22.185Z,97080.69
2023-01-03T09:22:50.065Z,97167.03
2023-01-03T09:25:17.919Z,97175.16
2023-01-03T09:27:47.689Z,97086.56
2023-01-03T09:30:17.415Z,97203.34
2023-01-03T09:32:46.695Z,97119.06
2023-01-03T09:35:14.432Z,97206.66
2023-01-03T09:37:48.537Z,97145.78
2023-01-03T09:40:17.100Z,97169.78
2023-01-03T09:43:02.747Z,97108.69
2023-01-03T09:45:33.825Z,97101.69
2023-01-03T09:48:05.599Z,97202.09
2023-01-03T09:50:57.259Z,97150.16
2023-01-03T09:53:53.507Z,97133.69
2023-01-03T09:56:38.870Z,97127.97
2023-01-03T09:59:30.679Z,97129.06
2023-01-03T10:02:33.578Z,97183.97
2023-01-03T10:05:18.404Z,97051.78
2023-01-03T10:08:02.213Z,97088.84
2023-01-03T10:10:38.134Z,97027.56
2023-01-03T10:13:20.196Z,97188.22
2023-01-03T10:15:55.816Z,97181.44
2023-01-03T10:18:45.338Z,97115.44
2023-01-03T10:21:22.688Z,97145.25
2023-01-03T10:23:51.519Z,97158.47
2023-01-03T10:26:20.144Z,97167.16
2023-01-03T10:28:49.136Z,97118.78
2023-01-03T10:31:39.525Z,97084.97
2023-01-03T10:34:08.249Z,97171.31
2023-01-03T10:36:37.378Z,97012.91
2023-01-03T10:39:07.137Z,97058.88
2023-01-03T10:41:43.458Z,97165.47
2023-01-03T10:44:25.286Z,97123.81
2023-01-03T10:46:55.279Z,97128.72
2023-01-03T10:49:28.307Z,97129.75
2023-01-03T10:52:04.115Z,97016.56
2023-01-03T10:54:47.383Z,97110.13
2023-01-03T10:57:40.256Z,97177.13
2023-01-03T11:00:24.143Z,97080.09
2023-01-03T11:02:52.683Z,97181.81
2023-01-03T11:05:22.772Z,97114.91
2023-01-03T11:07:56.731Z,97151.72
2023-01-03T11:10:27.214Z,97177.94
2023-01-03T11:12:54.979Z,97140.97
2023-01-03T11:15:38.730Z,97172.72
2023-01-03T11:18:18.134Z,97176.59
2023-01-03T11:20:50.736Z,97123.94
2023-01-03T11:23:29.034Z,97131.25
2023-01-03T11:26:10.984Z,97070.75
2023-01-03T11:28:59.692Z,97148.00
2023-01-03T11:31:39.008Z,97166.75
2023-01-03T11:34:21.720Z,97144.41
2023-01-03T11:36:53.061Z,97170.53
2023-01-03T11:39:43.828Z,97169.50
2023-01-03T11:42:26.329Z,97125.88
2023-01-03T11:45:26.913Z,97158.97
2023-01-03T11:48:05.975Z,97154.88
2023-01-03T11:50:46.668Z,97105.91
2023-01-03T11:53:24.556Z,97147.75
2023-01-03T11:56:08.083Z,97121.66
2023-01-03T11:58:58.356Z,97149.38
2023-01-03T12:01:41.610Z,97145.84
2023-01-03T12:04:26.679Z,97143.91
2023-01-03T12:07:45.690Z,97145.84
2023-01-03T12:10:02.968Z,97137.31
2023-01-03T12:12:47.960Z,97137.88
2023-01-03T12:15:22.169Z,97141.28
2023-01-03T12:17:54.428Z,97134.88
2023-01-03T12:20:26.287Z,97137.50
2023-01-03T12:22:58.563Z,97143.44
2023-01-03T12:25:31.738Z,97142.75
2023-01-03T12:28:08.837Z,97040.06
2023-01-03T12:30:43.117Z,97137.06
2023-01-03T12:33:25.072Z,97156.69
2023-01-03T12:35:58.271Z,97137.25
2023-01-03T12:38:30.336Z,97097.69
2023-01-03T12:41:02.373Z,97125.09
2023-01-03T12:43:37.185Z,97051.25
2023-01-03T12:46:13.269Z,97105.56
2023-01-03T12:48:54.263Z,97127.94
2023-01-03T12:51:24.588Z,97130.00
2023-01-03T12:54:10.036Z,97125.06
2023-01-03T12:56:59.039Z,97119.19
2023-01-03T12:59:44.995Z,97117.13
2023-01-03T13:02:23.235Z,97113.03
2023-01-03T13:04:54.905Z,97082.72
2023-01-03T13:07:25.796Z,97114.63
2023-01-03T13:10:01.147Z,97098.09
2023-01-03T13:12:31.966Z,97122.50
2023-01-03T13:15:15.938Z,97112.59
2023-01-03T13:17:45.769Z,97121.59
2023-01-03T13:20:28.371Z,97053.19
2023-01-03T13:22:56.956Z,97128.28
2023-01-03T13:25:37.504Z,97121.28
2023-01-03T13:28:09.176Z,97034.81
2023-01-03T13:30:39.226Z,97122.34
2023-01-03T13:33:17.563Z,97058.31
2023-01-03T13:36:01.525Z,97120.25
2023-01-03T13:38:31.726Z,97120.41
2023-01-03T13:41:17.796Z,97120.63
2023-01-03T13:43:49.681Z,97024.88
2023-01-03T13:46:25.760Z,97099.88
2023-01-03T13:48:57.385Z,97123.25
2023-01-03T13:51:50.516Z,97124.16
2023-01-03T13:54:35.937Z,97121.53
2023-01-03T13:57:07.255Z,97061.75
2023-01-03T13:59:42.592Z,97101.88
2023-01-03T14:02:51.034Z,97125.72
2023-01-03T14:05:54.497Z,97130.75
2023-01-03T14:08:35.582Z,97139.31
2023-01-03T14:11:27.987Z,97143.44
2023-01-03T14:14:00.449Z,97140.78
2023-01-03T14:16:31.782Z,97150.63
2023-01-03T14:19:05.385Z,97148.91
2023-01-03T14:21:44.324Z,97149.38
2023-01-03T14:24:20.034Z,97162.06
2023-01-03T14:26:47.770Z,97144.47
2023-01-03T14:29:20.481Z,97115.06
2023-01-03T14:31:50.239Z,97141.28
2023-01-03T14:34:30.039Z,97146.09
2023-01-03T14:37:06.066Z,97152.03
2023-01-03T14:42:04.299Z,97155.69
2023-01-03T14:44:32.962Z,97148.06
2023-01-03T14:47:03.959Z,97142.44
2023-01-03T14:49:41.483Z,97129.44
2023-01-03T14:52:17.287Z,97167.22
2023-01-03T14:54:47.659Z,97155.81
2023-01-03T14:57:20.770Z,97160.16
2023-01-03T14:59:49.599Z,97135.47
2023-01-03T15:02:18.242Z,97170.41
2023-01-03T15:04:53.397Z,97178.63
2023-01-03T15:07:28.366Z,97177.84
2023-01-03T15:10:04.313Z,97176.94
2023-01-03T15:12:36.062Z,97158.88
2023-01-03T15:15:20.222Z,97181.94
2023-01-03T15:17:49.983Z,97184.69
2023-01-03T15:20:22.177Z,97180.09
2023-01-03T15:22:50.000Z,97148.03
2023-01-03T15:25:20.269Z,97192.34
2023-01-03T15:27:50.186Z,97091.94
2023-01-03T15:30:24.749Z,97192.06
2023-01-03T15:33:03.298Z,97196.97
2023-01-03T15:35:37.818Z,97197.31
2023-01-03T15:38:14.659Z,97190.69
2023-01-03T15:40:44.939Z,97187.75
2023-01-03T15:43:22.167Z,97177.22
2023-01-03T15:46:10.796Z,97191.97
2023-01-03T15:48:39.582Z,97148.44
2023-01-03T15:51:08.728Z,97188.31
2023-01-03T15:53:43.697Z,97196.22
2023-01-03T15:56:18.061Z,97182.81
2023-01-03T15:58:46.682Z,97199.59
2023-01-03T16:01:14.791Z,97204.72
2023-01-03T16:03:42.601Z,97107.78
2023-01-03T16:06:11.713Z,97057.41
2023-01-03T16:08:42.470Z,97147.53
2023-01-03T16:11:19.269Z,97203.59
2023-01-03T16:13:51.914Z,97202.56
2023-01-03T16:16:23.758Z,97203.94
2023-01-03T16:18:51.554Z,97203.00
2023-01-03T16:21:20.836Z,97191.13
2023-01-03T16:23:48.542Z,97191.00
2023-01-03T16:26:17.231Z,97205.63
2023-01-03T16:28:45.032Z,97170.69
2023-01-03T16:31:15.820Z,97196.72
2023-01-03T16:33:44.677Z,97209.97
2023-01-03T16:36:26.788Z,97211.22
2023-01-03T16:38:54.466Z,97204.38
2023-01-03T16:41:22.131Z,97186.06
2023-01-03T16:43:49.801Z,97211.41
2023-01-03T16:46:21.939Z,97212.44
2023-01-03T16:48:52.926Z,97208.34
2023-01-03T16:51:24.343Z,97221.91
2023-01-03T16:53:56.328Z,97115.06
2023-01-03T16:56:24.701Z,97107.06
2023-01-03T16:58:52.942Z,97217.88
2023-01-03T17:01:20.813Z,97224.66
2023-01-03T17:03:48.764Z,97145.09
2023-01-03T17:06:25.171Z,97165.13
2023-01-03T17:08:55.363Z,97227.66
2023-01-03T17:11:23.590Z,97207.34
2023-01-03T17:13:53.198Z,97218.53
2023-01-03T17:16:22.950Z,97217.31
2023-01-03T17:18:55.702Z,97223.13
2023-01-03T17:21:25.518Z,97210.94
2023-01-03T17:23:58.142Z,97231.38
2023-01-03T17:26:26.961Z,97229.00
2023-01-03T17:28:55.734Z,97231.34
2023-01-03T17:31:25.585Z,97229.84
2023-01-03T17:33:54.439Z,97241.56
2023-01-03T17:36:25.740Z,97245.41
2023-01-03T17:38:59.839Z,97233.56
2023-01-03T17:41:27.681Z,97240.75
2023-01-03T17:43:55.900Z,97249.16
2023-01-03T17:46:44.132Z,97248.84
2023-01-03T17:49:26.884Z,97245.41
2023-01-03T17:51:57.175Z,97242.50
2023-01-03T17:54:28.438Z,97203.69
2023-01-03T17:56:58.018Z,97238.63
2023-01-03T17:59:26.121Z,97242.34
2023-01-03T18:01:55.174Z,97234.78
2023-01-03T18:04:23.096Z,97244.47
2023-01-03T18:06:57.079Z,97239.88
2023-01-03T18:09:27.270Z,97225.31
2023-01-03T18:11:55.560Z,97236.75
2023-01-03T18:14:23.436Z,97246.00
2023-01-03T18:16:55.068Z,97232.50
2023-01-03T18:19:26.291Z,97236.47
2023-01-03T18:21:54.655Z,97241.50
2023-01-03T18:24:24.830Z,97247.75
2023-01-03T18:26:55.904Z,97253.69
2023-01-03T18:29:23.524Z,97256.56
2023-01-03T18:31:51.789Z,97246.84
2023-01-03T18:34:19.493Z,97127.47
2023-01-03T18:36:50.500Z,97250.31
2023-01-03T18:39:23.239Z,97245.22
2023-01-03T18:41:50.882Z,97247.25
2023-01-03T18:44:23.127Z,97246.25
2023-01-03T18:46:51.724Z,97252.06
2023-01-03T18:49:20.220Z,97250.25
2023-01-03T18:51:50.496Z,97236.66
2023-01-03T18:54:20.562Z,97217.38
2023-01-03T18:56:48.266Z,97247.06
2023-01-03T18:59:23.360Z,97247.25
2023-01-03T19:01:51.208Z,97245.44
2023-01-03T19:04:18.975Z,97245.81
2023-01-03T19:06:49.395Z,97243.78
2023-01-03T19:09:21.783Z,97241.34
2023-01-03T19:11:50.129Z,97128.06
2023-01-03T19:14:17.873Z,97248.84
2023-01-03T19:16:46.822Z,97243.88
2023-01-03T19:19:14.554Z,97249.41
2023-01-03T19:21:45.407Z,97245.59
2023-01-03T19:24:23.581Z,97239.22
2023-01-03T19:26:53.826Z,97218.41
2023-01-03T19:29:24.784Z,97224.66
2023-01-03T19:31:58.158Z,97144.50
2023-01-03T19:34:27.618Z,97074.91
2023-01-03T19:36:57.077Z,97036.88
2023-01-03T19:39:27.284Z,97232.22
2023-01-03T19:42:16.053Z,97228.59
2023-01-03T19:44:44.274Z,97227.84
2023-01-03T19:47:15.959Z,97192.59
2023-01-03T19:49:48.626Z,97211.63
2023-01-03T19:52:17.033Z,97196.03
2023-01-03T19:54:45.785Z,97250.63
2023-01-03T19:57:22.406Z,97037.00
2023-01-03T19:59:56.356Z,97145.88
2023-01-03T20:02:39.300Z,97092.19
2023-01-03T20:05:15.408Z,97138.53
2023-01-03T20:07:43.327Z,97219.25
2023-01-03T20:10:18.413Z,97068.44
2023-01-03T20:12:47.595Z,97204.47
2023-01-03T20:15:26.941Z,97012.19
2023-01-03T20:17:56.655Z,97135.31
2023-01-03T20:20:30.646Z,97204.56
2023-01-03T20:23:05.091Z,97035.25
2023-01-03T20:25:35.034Z,97005.63
2023-01-03T20:28:03.202Z,97206.78
2023-01-03T20:30:32.969Z,97210.81
2023-01-03T20:33:02.234Z,97087.13
2023-01-03T20:36:09.519Z,97186.72
2023-01-03T20:38:27.547Z,97081.50
2023-01-03T20:40:56.818Z,97234.00
2023-01-03T20:43:25.206Z,97217.41
2023-01-03T20:45:55.590Z,97217.09
2023-01-03T20:48:26.695Z,97049.97
2023-01-03T20:50:54.721Z,97210.47
2023-01-03T20:53:25.173Z,97232.94
2023-01-03T20:55:53.606Z,97133.75
2023-01-03T20:58:24.950Z,97217.34
2023-01-03T21:00:58.176Z,97234.00
2023-01-03T21:03:33.854Z,97096.50
2023-01-03T21:06:02.680Z,97224.41
2023-01-03T21:08:48.962Z,97201.94
2023-01-03T21:11:16.786Z,97240.25
2023-01-03T21:13:44.560Z,97126.59
2023-01-03T21:16:26.581Z,97142.81
2023-01-03T21:18:55.775Z,97220.00
2023-01-03T21:21:24.653Z,97238.25
2023-01-03T21:23:54.152Z,97231.03
2023-01-03T21:26:22.251Z,97231.03
2023-01-03T21:28:52.036Z,97232.66
2023-01-03T21:31:23.771Z,97231.84
2023-01-03T21:33:52.047Z,97201.94
2023-01-03T21:36:24.759Z,97238.69
2023-01-03T21:38:52.734Z,97235.25
2023-01-03T21:41:21.626Z,97232.47
2023-01-03T21:43:49.249Z,97233.06
2023-01-03T21:46:18.509Z,97230.06
2023-01-03T21:48:46.660Z,97213.63
2023-01-03T21:51:20.717Z,97226.09
2023-01-03T21:53:56.870Z,97219.47
2023-01-03T21:56:26.158Z,97225.25
2023-01-03T21:58:53.749Z,97219.44
2023-01-03T22:01:23.656Z,97212.63
2023-01-03T22:04:09.763Z,97225.44
2023-01-03T22:06:38.416Z,97227.47
2023-01-03T22:09:27.399Z,97212.03
2023-01-03T22:11:55.103Z,97223.66
2023-01-03T22:14:31.454Z,97225.28
2023-01-03T22:17:01.546Z,97150.84
2023-01-03T22:19:29.244Z,97224.88
2023-01-03T22:21:56.888Z,97218.66
2023-01-03T22:24:33.245Z,97152.47
2023-01-03T22:27:00.932Z,97228.50
2023-01-03T22:29:28.592Z,97218.47
2023-01-03T22:31:56.380Z,97128.22
2023-01-03T22:34:27.159Z,97195.19
2023-01-03T22:36:59.727Z,97220.50
2023-01-03T22:39:28.799Z,97214.25
2023-01-03T22:41:57.439Z,97211.84
2023-01-03T22:44:26.839Z,97220.69
2023-01-03T22:46:54.469Z,97218.88
2023-01-03T22:49:22.155Z,97216.06
2023-01-03T22:51:49.758Z,97223.28
2023-01-03T22:54:17.523Z,97225.47
2023-01-03T22:58:16.454Z,97097.09
2023-01-03T23:00:38.354Z,97130.78
2023-01-03T23:03:06.088Z,97211.66
2023-01-03T23:05:36.460Z,97203.81
2023-01-03T23:08:04.079Z,97203.41
2023-01-03T23:10:31.683Z,97180.94
2023-01-03T23:12:58.480Z,97193.38
2023-01-03T23:15:27.677Z,97187.34
2023-01-03T23:17:57.447Z,97204.41
2023-01-03T23:20:27.525Z,97207.03
2023-01-03T23:22:59.689Z,97161.47
2023-01-03T23:25:27.822Z,97190.16
2023-01-03T23:27:55.496Z,97200.59
2023-01-03T23:30:31.903Z,97192.38
2023-01-03T23:33:00.974Z,97172.88
2023-01-03T23:35:28.645Z,97169.88
2023-01-03T23:37:57.768Z,97120.50
2023-01-03T23:40:25.456Z,97122.91
2023-01-03T23:42:53.130Z,97178.69
2023-01-03T23:45:20.860Z,97199.75
2023-01-03T23:47:48.552Z,97121.28
2023-01-03T23:50:17.614Z,97142.16
2023-01-03T23:52:45.309Z,97210.72
2023-01-03T23:55:13.228Z,97170.22
2023-01-03T23:57:41.141Z,97089.97
